CheckWX is a tool to help pilots better visualize weather data.  It is not intended as a substitute for an official pre-flight weather briefing.

21:12:17 UTC

LTDA TAF
Hatay Airport
Hatay, Turkey
TAF LTDA 081340Z 0815/0824 23012KT 9999 SCT040

Apr-8@
15:00 UTC

Apr-8 @ 15:00 UTC

Apr-9@
00:00 UTC

Apr-9 @ 00:00 UTC

TAF LTDA 081340Z 0815/0824 23012KT 9999 SCT040
Wind
  • 230° at 12 KTS
Cloud Levels
  • Scattered at 4,000' AGL